sensor_id;sensor_type;location;lat;lon;timestamp;P1;durP1;ratioP1;P2;durP2;ratioP2
67227;SDS011;54139;42.616;23.748;2023-02-23T00:00:10;15.55;;;11.15;;
67227;SDS011;54139;42.616;23.748;2023-02-23T00:02:59;12.05;;;10.15;;
67227;SDS011;54139;42.616;23.748;2023-02-23T00:05:25;11.82;;;9.93;;
67227;SDS011;54139;42.616;23.748;2023-02-23T00:07:53;16.67;;;9.77;;
67227;SDS011;54139;42.616;23.748;2023-02-23T00:10:18;12.02;;;10.20;;
67227;SDS011;54139;42.616;23.748;2023-02-23T00:12:45;14.30;;;10.00;;
67227;SDS011;54139;42.616;23.748;2023-02-23T00:15:11;13.18;;;10.13;;
67227;SDS011;54139;42.616;23.748;2023-02-23T00:17:37;16.48;;;10.52;;
67227;SDS011;54139;42.616;23.748;2023-02-23T00:20:05;17.20;;;10.50;;
67227;SDS011;54139;42.616;23.748;2023-02-23T00:22:35;12.27;;;10.00;;
67227;SDS011;54139;42.616;23.748;2023-02-23T00:25:02;12.23;;;8.77;;
67227;SDS011;54139;42.616;23.748;2023-02-23T00:27:32;14.43;;;9.90;;
67227;SDS011;54139;42.616;23.748;2023-02-23T00:29:58;14.55;;;10.35;;
67227;SDS011;54139;42.616;23.748;2023-02-23T00:32:24;11.02;;;8.98;;
67227;SDS011;54139;42.616;23.748;2023-02-23T00:34:49;11.68;;;9.55;;
67227;SDS011;54139;42.616;23.748;2023-02-23T00:37:15;10.45;;;9.35;;
67227;SDS011;54139;42.616;23.748;2023-02-23T00:39:42;12.38;;;9.95;;
67227;SDS011;54139;42.616;23.748;2023-02-23T00:42:10;14.90;;;9.80;;
67227;SDS011;54139;42.616;23.748;2023-02-23T00:44:35;13.95;;;9.60;;
67227;SDS011;54139;42.616;23.748;2023-02-23T00:47:04;11.60;;;9.75;;
67227;SDS011;54139;42.616;23.748;2023-02-23T00:49:30;13.55;;;9.98;;
67227;SDS011;54139;42.616;23.748;2023-02-23T00:51:56;12.88;;;9.23;;
67227;SDS011;54139;42.616;23.748;2023-02-23T00:54:21;10.00;;;8.82;;
67227;SDS011;54139;42.616;23.748;2023-02-23T00:56:47;11.10;;;8.85;;
67227;SDS011;54139;42.616;23.748;2023-02-23T00:59:13;13.25;;;9.13;;
67227;SDS011;54139;42.616;23.748;2023-02-23T01:01:39;13.30;;;8.85;;
67227;SDS011;54139;42.616;23.748;2023-02-23T01:04:08;12.88;;;9.75;;
67227;SDS011;54139;42.616;23.748;2023-02-23T01:06:35;11.63;;;8.32;;
67227;SDS011;54139;42.616;23.748;2023-02-23T01:09:04;12.07;;;9.77;;
67227;SDS011;54139;42.616;23.748;2023-02-23T01:11:32;12.80;;;9.45;;
67227;SDS011;54139;42.616;23.748;2023-02-23T01:13:58;11.02;;;8.45;;
67227;SDS011;54139;42.616;23.748;2023-02-23T01:16:26;11.15;;;8.63;;
67227;SDS011;54139;42.616;23.748;2023-02-23T01:18:54;12.57;;;8.30;;
67227;SDS011;54139;42.616;23.748;2023-02-23T01:21:26;9.82;;;7.97;;
67227;SDS011;54139;42.616;23.748;2023-02-23T01:23:53;9.02;;;7.85;;
67227;SDS011;54139;42.616;23.748;2023-02-23T01:28:51;10.35;;;7.85;;
67227;SDS011;54139;42.616;23.748;2023-02-23T01:31:18;8.40;;;7.60;;
67227;SDS011;54139;42.616;23.748;2023-02-23T01:33:45;11.70;;;7.82;;
67227;SDS011;54139;42.616;23.748;2023-02-23T01:36:11;10.93;;;8.63;;
67227;SDS011;54139;42.616;23.748;2023-02-23T01:38:37;10.95;;;8.40;;
67227;SDS011;54139;42.616;23.748;2023-02-23T01:41:03;9.10;;;8.20;;
67227;SDS011;54139;42.616;23.748;2023-02-23T01:43:31;11.93;;;8.60;;
67227;SDS011;54139;42.616;23.748;2023-02-23T01:45:56;11.63;;;9.52;;
67227;SDS011;54139;42.616;23.748;2023-02-23T01:48:37;12.10;;;9.50;;
67227;SDS011;54139;42.616;23.748;2023-02-23T01:53:34;11.52;;;9.35;;
67227;SDS011;54139;42.616;23.748;2023-02-23T01:56:05;10.95;;;9.48;;
67227;SDS011;54139;42.616;23.748;2023-02-23T01:58:35;11.25;;;8.77;;
67227;SDS011;54139;42.616;23.748;2023-02-23T02:01:05;17.38;;;9.80;;
67227;SDS011;54139;42.616;23.748;2023-02-23T02:03:38;13.02;;;9.45;;
67227;SDS011;54139;42.616;23.748;2023-02-23T02:06:07;11.43;;;9.60;;
67227;SDS011;54139;42.616;23.748;2023-02-23T02:08:34;12.30;;;9.18;;
67227;SDS011;54139;42.616;23.748;2023-02-23T02:11:13;12.63;;;8.60;;
67227;SDS011;54139;42.616;23.748;2023-02-23T02:27:17;13.80;;;9.48;;
67227;SDS011;54139;42.616;23.748;2023-02-23T02:38:27;16.15;;;9.38;;
67227;SDS011;54139;42.616;23.748;2023-02-23T02:41:13;11.63;;;9.48;;
67227;SDS011;54139;42.616;23.748;2023-02-23T02:51:37;12.27;;;9.02;;
67227;SDS011;54139;42.616;23.748;2023-02-23T02:54:23;12.38;;;8.88;;
67227;SDS011;54139;42.616;23.748;2023-02-23T02:56:52;10.70;;;9.07;;
67227;SDS011;54139;42.616;23.748;2023-02-23T02:59:21;12.70;;;9.30;;
67227;SDS011;54139;42.616;23.748;2023-02-23T03:02:08;11.27;;;8.93;;
67227;SDS011;54139;42.616;23.748;2023-02-23T03:05:46;9.68;;;7.57;;
67227;SDS011;54139;42.616;23.748;2023-02-23T03:11:03;9.32;;;8.07;;
67227;SDS011;54139;42.616;23.748;2023-02-23T03:20:25;11.32;;;8.20;;
67227;SDS011;54139;42.616;23.748;2023-02-23T03:23:15;12.75;;;9.13;;
67227;SDS011;54139;42.616;23.748;2023-02-23T03:29:26;13.02;;;9.32;;
67227;SDS011;54139;42.616;23.748;2023-02-23T03:32:24;11.05;;;9.15;;
67227;SDS011;54139;42.616;23.748;2023-02-23T03:35:17;12.88;;;9.15;;
67227;SDS011;54139;42.616;23.748;2023-02-23T03:38:10;9.85;;;8.50;;
67227;SDS011;54139;42.616;23.748;2023-02-23T03:41:00;10.43;;;8.93;;
67227;SDS011;54139;42.616;23.748;2023-02-23T03:43:47;12.82;;;9.85;;
67227;SDS011;54139;42.616;23.748;2023-02-23T03:46:37;14.38;;;10.68;;
67227;SDS011;54139;42.616;23.748;2023-02-23T03:49:22;13.35;;;10.30;;
67227;SDS011;54139;42.616;23.748;2023-02-23T03:52:14;10.82;;;9.60;;
67227;SDS011;54139;42.616;23.748;2023-02-23T03:55:02;12.23;;;10.30;;
67227;SDS011;54139;42.616;23.748;2023-02-23T03:57:52;12.77;;;10.40;;
67227;SDS011;54139;42.616;23.748;2023-02-23T04:00:39;13.95;;;10.40;;
67227;SDS011;54139;42.616;23.748;2023-02-23T04:03:26;17.00;;;9.93;;
67227;SDS011;54139;42.616;23.748;2023-02-23T04:06:11;13.82;;;10.52;;
67227;SDS011;54139;42.616;23.748;2023-02-23T04:08:57;16.73;;;12.23;;
67227;SDS011;54139;42.616;23.748;2023-02-23T04:14:38;18.92;;;13.30;;
67227;SDS011;54139;42.616;23.748;2023-02-23T04:17:12;18.40;;;13.40;;
67227;SDS011;54139;42.616;23.748;2023-02-23T04:19:47;16.63;;;13.35;;
67227;SDS011;54139;42.616;23.748;2023-02-23T04:22:13;22.13;;;13.38;;
67227;SDS011;54139;42.616;23.748;2023-02-23T04:24:39;21.23;;;14.30;;
67227;SDS011;54139;42.616;23.748;2023-02-23T04:27:04;18.05;;;12.27;;
67227;SDS011;54139;42.616;23.748;2023-02-23T04:29:30;16.08;;;12.10;;
67227;SDS011;54139;42.616;23.748;2023-02-23T04:31:55;17.58;;;11.80;;
67227;SDS011;54139;42.616;23.748;2023-02-23T04:34:21;14.57;;;12.02;;
67227;SDS011;54139;42.616;23.748;2023-02-23T04:36:46;12.73;;;10.05;;
67227;SDS011;54139;42.616;23.748;2023-02-23T04:39:13;12.27;;;9.30;;
67227;SDS011;54139;42.616;23.748;2023-02-23T04:41:40;12.00;;;10.02;;
67227;SDS011;54139;42.616;23.748;2023-02-23T04:44:05;17.98;;;12.48;;
67227;SDS011;54139;42.616;23.748;2023-02-23T04:46:31;19.02;;;14.27;;
67227;SDS011;54139;42.616;23.748;2023-02-23T04:48:56;22.35;;;14.68;;
67227;SDS011;54139;42.616;23.748;2023-02-23T04:51:23;16.15;;;12.77;;
67227;SDS011;54139;42.616;23.748;2023-02-23T04:53:48;12.88;;;10.15;;
67227;SDS011;54139;42.616;23.748;2023-02-23T04:56:14;16.25;;;11.38;;
67227;SDS011;54139;42.616;23.748;2023-02-23T04:58:40;14.88;;;11.43;;
67227;SDS011;54139;42.616;23.748;2023-02-23T05:01:06;27.95;;;12.27;;
67227;SDS011;54139;42.616;23.748;2023-02-23T05:03:33;32.95;;;20.75;;
67227;SDS011;54139;42.616;23.748;2023-02-23T05:06:00;47.30;;;29.83;;
67227;SDS011;54139;42.616;23.748;2023-02-23T05:08:27;35.58;;;22.88;;
67227;SDS011;54139;42.616;23.748;2023-02-23T05:10:52;32.13;;;21.17;;
67227;SDS011;54139;42.616;23.748;2023-02-23T05:13:18;29.00;;;20.15;;
67227;SDS011;54139;42.616;23.748;2023-02-23T05:15:44;25.10;;;18.00;;
67227;SDS011;54139;42.616;23.748;2023-02-23T05:18:09;25.30;;;17.58;;
67227;SDS011;54139;42.616;23.748;2023-02-23T05:20:34;22.65;;;16.42;;
67227;SDS011;54139;42.616;23.748;2023-02-23T05:23:00;21.88;;;16.58;;
67227;SDS011;54139;42.616;23.748;2023-02-23T05:25:25;15.30;;;11.77;;
67227;SDS011;54139;42.616;23.748;2023-02-23T05:27:51;14.30;;;11.10;;
67227;SDS011;54139;42.616;23.748;2023-02-23T05:30:16;11.30;;;9.73;;
67227;SDS011;54139;42.616;23.748;2023-02-23T05:32:42;10.52;;;9.05;;
67227;SDS011;54139;42.616;23.748;2023-02-23T05:35:08;15.13;;;9.43;;
67227;SDS011;54139;42.616;23.748;2023-02-23T05:37:33;10.43;;;9.20;;
67227;SDS011;54139;42.616;23.748;2023-02-23T05:39:59;13.30;;;9.88;;
67227;SDS011;54139;42.616;23.748;2023-02-23T05:42:24;10.68;;;8.75;;
67227;SDS011;54139;42.616;23.748;2023-02-23T05:44:50;10.38;;;9.40;;
67227;SDS011;54139;42.616;23.748;2023-02-23T05:47:15;11.27;;;9.50;;
67227;SDS011;54139;42.616;23.748;2023-02-23T05:49:41;9.85;;;8.80;;
67227;SDS011;54139;42.616;23.748;2023-02-23T05:52:06;12.05;;;9.50;;
67227;SDS011;54139;42.616;23.748;2023-02-23T05:54:32;12.02;;;9.73;;
67227;SDS011;54139;42.616;23.748;2023-02-23T05:56:58;13.68;;;9.02;;
67227;SDS011;54139;42.616;23.748;2023-02-23T05:59:23;14.85;;;9.68;;
67227;SDS011;54139;42.616;23.748;2023-02-23T06:01:49;10.48;;;9.38;;
67227;SDS011;54139;42.616;23.748;2023-02-23T06:04:14;12.10;;;9.30;;
67227;SDS011;54139;42.616;23.748;2023-02-23T06:06:41;10.80;;;9.32;;
67227;SDS011;54139;42.616;23.748;2023-02-23T06:09:07;9.40;;;8.50;;
67227;SDS011;54139;42.616;23.748;2023-02-23T06:11:32;9.88;;;8.77;;
67227;SDS011;54139;42.616;23.748;2023-02-23T06:13:58;11.30;;;10.05;;
67227;SDS011;54139;42.616;23.748;2023-02-23T06:16:24;10.35;;;8.88;;
67227;SDS011;54139;42.616;23.748;2023-02-23T06:18:49;11.13;;;9.48;;
67227;SDS011;54139;42.616;23.748;2023-02-23T06:21:15;10.85;;;9.40;;
67227;SDS011;54139;42.616;23.748;2023-02-23T06:23:40;18.70;;;8.70;;
67227;SDS011;54139;42.616;23.748;2023-02-23T06:26:06;9.95;;;9.05;;
67227;SDS011;54139;42.616;23.748;2023-02-23T06:28:32;17.63;;;8.80;;
67227;SDS011;54139;42.616;23.748;2023-02-23T06:30:58;8.82;;;8.02;;
67227;SDS011;54139;42.616;23.748;2023-02-23T06:33:23;8.68;;;7.80;;
67227;SDS011;54139;42.616;23.748;2023-02-23T06:35:49;12.15;;;8.82;;
67227;SDS011;54139;42.616;23.748;2023-02-23T06:38:15;7.40;;;6.75;;
67227;SDS011;54139;42.616;23.748;2023-02-23T06:40:41;7.22;;;6.53;;
67227;SDS011;54139;42.616;23.748;2023-02-23T06:43:07;7.38;;;6.68;;
67227;SDS011;54139;42.616;23.748;2023-02-23T06:45:32;6.75;;;6.15;;
67227;SDS011;54139;42.616;23.748;2023-02-23T06:47:58;8.00;;;6.68;;
67227;SDS011;54139;42.616;23.748;2023-02-23T06:50:25;8.90;;;7.07;;
67227;SDS011;54139;42.616;23.748;2023-02-23T06:52:50;7.65;;;6.95;;
67227;SDS011;54139;42.616;23.748;2023-02-23T06:55:16;7.60;;;7.00;;
67227;SDS011;54139;42.616;23.748;2023-02-23T06:57:41;7.65;;;6.38;;
67227;SDS011;54139;42.616;23.748;2023-02-23T07:00:08;7.22;;;6.63;;
67227;SDS011;54139;42.616;23.748;2023-02-23T07:02:35;8.93;;;7.00;;
67227;SDS011;54139;42.616;23.748;2023-02-23T07:05:02;7.35;;;6.75;;
67227;SDS011;54139;42.616;23.748;2023-02-23T07:07:28;6.72;;;6.13;;
67227;SDS011;54139;42.616;23.748;2023-02-23T07:09:55;6.63;;;6.13;;
67227;SDS011;54139;42.616;23.748;2023-02-23T07:12:20;6.60;;;6.03;;
67227;SDS011;54139;42.616;23.748;2023-02-23T07:14:47;7.72;;;7.13;;
67227;SDS011;54139;42.616;23.748;2023-02-23T07:17:12;7.00;;;6.35;;
67227;SDS011;54139;42.616;23.748;2023-02-23T07:19:38;8.82;;;8.10;;
67227;SDS011;54139;42.616;23.748;2023-02-23T07:22:03;8.18;;;7.38;;
67227;SDS011;54139;42.616;23.748;2023-02-23T07:24:29;7.47;;;6.80;;
67227;SDS011;54139;42.616;23.748;2023-02-23T07:26:55;6.88;;;6.28;;
67227;SDS011;54139;42.616;23.748;2023-02-23T07:29:20;6.15;;;5.50;;
67227;SDS011;54139;42.616;23.748;2023-02-23T07:31:48;5.28;;;4.88;;
67227;SDS011;54139;42.616;23.748;2023-02-23T07:34:14;5.85;;;5.35;;
67227;SDS011;54139;42.616;23.748;2023-02-23T07:36:39;10.13;;;5.35;;
67227;SDS011;54139;42.616;23.748;2023-02-23T07:39:05;5.93;;;5.40;;
67227;SDS011;54139;42.616;23.748;2023-02-23T07:41:31;6.25;;;5.75;;
67227;SDS011;54139;42.616;23.748;2023-02-23T07:43:59;5.40;;;4.90;;
67227;SDS011;54139;42.616;23.748;2023-02-23T07:46:25;7.72;;;4.70;;
67227;SDS011;54139;42.616;23.748;2023-02-23T07:48:50;4.90;;;4.50;;
67227;SDS011;54139;42.616;23.748;2023-02-23T07:51:16;5.03;;;4.63;;
67227;SDS011;54139;42.616;23.748;2023-02-23T07:53:42;5.38;;;4.97;;
67227;SDS011;54139;42.616;23.748;2023-02-23T07:56:09;5.00;;;4.60;;
67227;SDS011;54139;42.616;23.748;2023-02-23T07:58:42;5.07;;;4.68;;
67227;SDS011;54139;42.616;23.748;2023-02-23T08:01:08;5.53;;;5.03;;
67227;SDS011;54139;42.616;23.748;2023-02-23T08:03:35;7.65;;;5.40;;
67227;SDS011;54139;42.616;23.748;2023-02-23T08:06:00;8.15;;;7.35;;
67227;SDS011;54139;42.616;23.748;2023-02-23T08:08:26;8.82;;;7.95;;
67227;SDS011;54139;42.616;23.748;2023-02-23T08:11:02;10.70;;;8.52;;
67227;SDS011;54139;42.616;23.748;2023-02-23T08:13:29;10.45;;;9.45;;
67227;SDS011;54139;42.616;23.748;2023-02-23T08:15:55;12.15;;;9.98;;
67227;SDS011;54139;42.616;23.748;2023-02-23T08:18:21;11.88;;;10.13;;
67227;SDS011;54139;42.616;23.748;2023-02-23T08:20:47;10.13;;;9.23;;
67227;SDS011;54139;42.616;23.748;2023-02-23T08:23:12;9.57;;;8.73;;
67227;SDS011;54139;42.616;23.748;2023-02-23T08:25:38;10.23;;;8.07;;
67227;SDS011;54139;42.616;23.748;2023-02-23T08:28:03;7.32;;;6.63;;
67227;SDS011;54139;42.616;23.748;2023-02-23T08:30:31;7.10;;;6.50;;
67227;SDS011;54139;42.616;23.748;2023-02-23T08:32:57;6.28;;;5.88;;
67227;SDS011;54139;42.616;23.748;2023-02-23T08:35:22;7.05;;;6.45;;
67227;SDS011;54139;42.616;23.748;2023-02-23T08:37:48;6.53;;;6.03;;
67227;SDS011;54139;42.616;23.748;2023-02-23T08:40:14;6.63;;;5.72;;
67227;SDS011;54139;42.616;23.748;2023-02-23T08:42:42;9.10;;;5.60;;
67227;SDS011;54139;42.616;23.748;2023-02-23T08:45:10;5.80;;;5.00;;
67227;SDS011;54139;42.616;23.748;2023-02-23T08:47:36;7.70;;;5.30;;
67227;SDS011;54139;42.616;23.748;2023-02-23T08:50:02;6.10;;;5.50;;
67227;SDS011;54139;42.616;23.748;2023-02-23T08:52:29;8.57;;;6.43;;
67227;SDS011;54139;42.616;23.748;2023-02-23T08:54:54;9.88;;;8.98;;
67227;SDS011;54139;42.616;23.748;2023-02-23T08:57:20;11.43;;;8.95;;
67227;SDS011;54139;42.616;23.748;2023-02-23T08:59:45;12.38;;;11.18;;
67227;SDS011;54139;42.616;23.748;2023-02-23T09:02:12;13.38;;;10.27;;
67227;SDS011;54139;42.616;23.748;2023-02-23T09:04:37;11.75;;;10.65;;
67227;SDS011;54139;42.616;23.748;2023-02-23T09:07:06;10.80;;;9.45;;
67227;SDS011;54139;42.616;23.748;2023-02-23T09:09:32;9.93;;;9.02;;
67227;SDS011;54139;42.616;23.748;2023-02-23T09:11:58;8.75;;;7.95;;
67227;SDS011;54139;42.616;23.748;2023-02-23T09:14:23;8.95;;;7.95;;
67227;SDS011;54139;42.616;23.748;2023-02-23T09:16:49;9.25;;;8.40;;
67227;SDS011;54139;42.616;23.748;2023-02-23T09:19:14;9.07;;;8.27;;
67227;SDS011;54139;42.616;23.748;2023-02-23T09:21:40;8.07;;;7.18;;
67227;SDS011;54139;42.616;23.748;2023-02-23T09:24:07;7.63;;;7.00;;
67227;SDS011;54139;42.616;23.748;2023-02-23T09:26:33;10.32;;;6.30;;
67227;SDS011;54139;42.616;23.748;2023-02-23T09:29:04;8.13;;;7.43;;
67227;SDS011;54139;42.616;23.748;2023-02-23T09:31:30;10.43;;;7.40;;
67227;SDS011;54139;42.616;23.748;2023-02-23T09:33:56;7.47;;;6.88;;
67227;SDS011;54139;42.616;23.748;2023-02-23T09:36:23;7.50;;;6.80;;
67227;SDS011;54139;42.616;23.748;2023-02-23T09:38:50;8.23;;;7.22;;
67227;SDS011;54139;42.616;23.748;2023-02-23T09:49:58;7.13;;;6.50;;
67227;SDS011;54139;42.616;23.748;2023-02-23T09:52:25;8.60;;;6.57;;
67227;SDS011;54139;42.616;23.748;2023-02-23T09:54:56;6.25;;;5.65;;
67227;SDS011;54139;42.616;23.748;2023-02-23T09:57:23;6.90;;;6.30;;
67227;SDS011;54139;42.616;23.748;2023-02-23T09:59:56;6.10;;;5.50;;
67227;SDS011;54139;42.616;23.748;2023-02-23T10:02:32;6.10;;;5.50;;
67227;SDS011;54139;42.616;23.748;2023-02-23T10:05:04;6.53;;;6.03;;
67227;SDS011;54139;42.616;23.748;2023-02-23T10:18:12;5.20;;;4.75;;
67227;SDS011;54139;42.616;23.748;2023-02-23T10:21:02;6.75;;;4.40;;
67227;SDS011;54139;42.616;23.748;2023-02-23T10:23:35;6.45;;;4.28;;
67227;SDS011;54139;42.616;23.748;2023-02-23T10:26:04;5.28;;;4.78;;
67227;SDS011;54139;42.616;23.748;2023-02-23T10:28:34;5.80;;;4.63;;
67227;SDS011;54139;42.616;23.748;2023-02-23T10:31:00;5.90;;;5.03;;
67227;SDS011;54139;42.616;23.748;2023-02-23T10:33:36;6.60;;;5.33;;
67227;SDS011;54139;42.616;23.748;2023-02-23T10:36:18;5.60;;;5.15;;
67227;SDS011;54139;42.616;23.748;2023-02-23T10:38:58;5.15;;;4.72;;
67227;SDS011;54139;42.616;23.748;2023-02-23T10:41:23;5.78;;;3.85;;
67227;SDS011;54139;42.616;23.748;2023-02-23T10:43:49;6.28;;;4.00;;
67227;SDS011;54139;42.616;23.748;2023-02-23T10:46:19;5.75;;;4.45;;
67227;SDS011;54139;42.616;23.748;2023-02-23T10:48:46;6.22;;;4.60;;
67227;SDS011;54139;42.616;23.748;2023-02-23T10:51:16;4.45;;;4.05;;
67227;SDS011;54139;42.616;23.748;2023-02-23T10:53:43;5.45;;;4.18;;
67227;SDS011;54139;42.616;23.748;2023-02-23T10:56:13;5.13;;;3.90;;
67227;SDS011;54139;42.616;23.748;2023-02-23T10:58:44;4.53;;;4.05;;
67227;SDS011;54139;42.616;23.748;2023-02-23T11:07:17;4.70;;;3.85;;
67227;SDS011;54139;42.616;23.748;2023-02-23T11:09:47;11.88;;;4.28;;
67227;SDS011;54139;42.616;23.748;2023-02-23T11:12:17;7.50;;;3.97;;
67227;SDS011;54139;42.616;23.748;2023-02-23T11:14:53;7.18;;;3.67;;
67227;SDS011;54139;42.616;23.748;2023-02-23T11:17:36;5.50;;;4.47;;
67227;SDS011;54139;42.616;23.748;2023-02-23T11:20:19;4.88;;;4.10;;
67227;SDS011;54139;42.616;23.748;2023-02-23T11:22:56;12.82;;;4.30;;
67227;SDS011;54139;42.616;23.748;2023-02-23T11:26:19;9.25;;;4.22;;
67227;SDS011;54139;42.616;23.748;2023-02-23T11:28:47;4.40;;;3.85;;
67227;SDS011;54139;42.616;23.748;2023-02-23T11:31:22;3.83;;;3.40;;
67227;SDS011;54139;42.616;23.748;2023-02-23T11:33:53;5.60;;;4.28;;
67227;SDS011;54139;42.616;23.748;2023-02-23T11:36:28;4.65;;;3.60;;
67227;SDS011;54139;42.616;23.748;2023-02-23T11:39:24;5.32;;;3.63;;
67227;SDS011;54139;42.616;23.748;2023-02-23T11:45:10;4.35;;;3.95;;
67227;SDS011;54139;42.616;23.748;2023-02-23T11:47:43;4.03;;;3.47;;
67227;SDS011;54139;42.616;23.748;2023-02-23T11:53:04;3.80;;;3.42;;
67227;SDS011;54139;42.616;23.748;2023-02-23T11:55:31;3.42;;;3.13;;
67227;SDS011;54139;42.616;23.748;2023-02-23T12:00:43;3.67;;;3.38;;
67227;SDS011;54139;42.616;23.748;2023-02-23T12:03:22;4.88;;;3.38;;
67227;SDS011;54139;42.616;23.748;2023-02-23T12:05:50;3.60;;;3.30;;
67227;SDS011;54139;42.616;23.748;2023-02-23T12:08:43;3.72;;;2.97;;
67227;SDS011;54139;42.616;23.748;2023-02-23T12:11:14;4.03;;;3.60;;
67227;SDS011;54139;42.616;23.748;2023-02-23T12:13:45;3.63;;;3.33;;
67227;SDS011;54139;42.616;23.748;2023-02-23T12:16:19;3.78;;;3.42;;
67227;SDS011;54139;42.616;23.748;2023-02-23T12:18:50;4.70;;;3.22;;
67227;SDS011;54139;42.616;23.748;2023-02-23T12:26:32;4.63;;;3.63;;
67227;SDS011;54139;42.616;23.748;2023-02-23T12:29:04;3.85;;;3.40;;
67227;SDS011;54139;42.616;23.748;2023-02-23T12:31:45;3.72;;;3.42;;
67227;SDS011;54139;42.616;23.748;2023-02-23T12:50:43;4.90;;;3.25;;
67227;SDS011;54139;42.616;23.748;2023-02-23T12:55:50;5.90;;;3.80;;
67227;SDS011;54139;42.616;23.748;2023-02-23T13:01:29;7.13;;;3.78;;
67227;SDS011;54139;42.616;23.748;2023-02-23T13:06:57;7.65;;;4.05;;
67227;SDS011;54139;42.616;23.748;2023-02-23T13:18:01;4.63;;;4.15;;
67227;SDS011;54139;42.616;23.748;2023-02-23T13:20:42;14.55;;;4.80;;
67227;SDS011;54139;42.616;23.748;2023-02-23T13:31:47;5.07;;;4.20;;
67227;SDS011;54139;42.616;23.748;2023-02-23T13:34:20;5.07;;;4.35;;
67227;SDS011;54139;42.616;23.748;2023-02-23T13:36:55;11.32;;;4.93;;
67227;SDS011;54139;42.616;23.748;2023-02-23T13:56:20;5.97;;;5.05;;
67227;SDS011;54139;42.616;23.748;2023-02-23T13:58:51;7.57;;;4.88;;
67227;SDS011;54139;42.616;23.748;2023-02-23T14:01:19;7.13;;;4.38;;
67227;SDS011;54139;42.616;23.748;2023-02-23T14:03:48;8.02;;;5.65;;
67227;SDS011;54139;42.616;23.748;2023-02-23T14:06:18;7.75;;;5.50;;
67227;SDS011;54139;42.616;23.748;2023-02-23T14:08:44;5.60;;;5.10;;
67227;SDS011;54139;42.616;23.748;2023-02-23T14:13:59;7.47;;;5.22;;
67227;SDS011;54139;42.616;23.748;2023-02-23T14:16:26;10.75;;;5.05;;
67227;SDS011;54139;42.616;23.748;2023-02-23T14:19:03;6.80;;;4.88;;
67227;SDS011;54139;42.616;23.748;2023-02-23T14:24:17;8.50;;;5.25;;
67227;SDS011;54139;42.616;23.748;2023-02-23T14:30:19;5.93;;;5.18;;
67227;SDS011;54139;42.616;23.748;2023-02-23T14:32:46;6.18;;;4.80;;
67227;SDS011;54139;42.616;23.748;2023-02-23T14:35:35;7.18;;;5.70;;
67227;SDS011;54139;42.616;23.748;2023-02-23T14:37:59;11.23;;;5.55;;
67227;SDS011;54139;42.616;23.748;2023-02-23T14:40:30;5.53;;;4.93;;
67227;SDS011;54139;42.616;23.748;2023-02-23T14:42:58;7.78;;;5.10;;
67227;SDS011;54139;42.616;23.748;2023-02-23T14:45:26;7.78;;;6.03;;
67227;SDS011;54139;42.616;23.748;2023-02-23T14:48:10;7.15;;;5.50;;
67227;SDS011;54139;42.616;23.748;2023-02-23T14:50:43;8.77;;;5.10;;
67227;SDS011;54139;42.616;23.748;2023-02-23T14:53:21;12.43;;;5.82;;
67227;SDS011;54139;42.616;23.748;2023-02-23T14:58:31;7.70;;;5.55;;
67227;SDS011;54139;42.616;23.748;2023-02-23T15:00:57;11.25;;;6.30;;
67227;SDS011;54139;42.616;23.748;2023-02-23T15:03:23;8.77;;;6.25;;
67227;SDS011;54139;42.616;23.748;2023-02-23T15:05:50;8.02;;;6.55;;
67227;SDS011;54139;42.616;23.748;2023-02-23T15:08:20;7.13;;;6.40;;
67227;SDS011;54139;42.616;23.748;2023-02-23T15:10:48;10.07;;;6.47;;
67227;SDS011;54139;42.616;23.748;2023-02-23T15:15:52;10.85;;;6.43;;
67227;SDS011;54139;42.616;23.748;2023-02-23T15:18:52;8.32;;;5.90;;
67227;SDS011;54139;42.616;23.748;2023-02-23T15:21:12;9.20;;;6.45;;
67227;SDS011;54139;42.616;23.748;2023-02-23T15:23:40;14.93;;;6.32;;
67227;SDS011;54139;42.616;23.748;2023-02-23T15:26:23;7.00;;;6.10;;
67227;SDS011;54139;42.616;23.748;2023-02-23T15:29:17;8.80;;;6.43;;
67227;SDS011;54139;42.616;23.748;2023-02-23T15:31:46;8.85;;;6.85;;
67227;SDS011;54139;42.616;23.748;2023-02-23T15:34:26;9.90;;;6.90;;
67227;SDS011;54139;42.616;23.748;2023-02-23T15:37:01;11.88;;;7.38;;
67227;SDS011;54139;42.616;23.748;2023-02-23T15:41:59;10.30;;;7.03;;
67227;SDS011;54139;42.616;23.748;2023-02-23T15:44:25;10.02;;;7.40;;
67227;SDS011;54139;42.616;23.748;2023-02-23T15:46:54;9.55;;;6.93;;
67227;SDS011;54139;42.616;23.748;2023-02-23T15:49:24;10.13;;;6.95;;
67227;SDS011;54139;42.616;23.748;2023-02-23T15:51:55;11.48;;;6.93;;
67227;SDS011;54139;42.616;23.748;2023-02-23T15:54:33;8.75;;;7.18;;
67227;SDS011;54139;42.616;23.748;2023-02-23T15:57:04;10.68;;;6.97;;
67227;SDS011;54139;42.616;23.748;2023-02-23T15:59:35;12.18;;;6.72;;
67227;SDS011;54139;42.616;23.748;2023-02-23T16:02:08;8.13;;;7.25;;
67227;SDS011;54139;42.616;23.748;2023-02-23T16:04:39;7.53;;;6.57;;
67227;SDS011;54139;42.616;23.748;2023-02-23T16:09:52;9.50;;;7.50;;
67227;SDS011;54139;42.616;23.748;2023-02-23T16:12:32;10.13;;;7.60;;
67227;SDS011;54139;42.616;23.748;2023-02-23T16:15:02;12.05;;;7.25;;
67227;SDS011;54139;42.616;23.748;2023-02-23T16:17:41;12.25;;;7.38;;
67227;SDS011;54139;42.616;23.748;2023-02-23T16:25:06;9.40;;;7.75;;
67227;SDS011;54139;42.616;23.748;2023-02-23T16:27:35;10.90;;;7.72;;
67227;SDS011;54139;42.616;23.748;2023-02-23T16:30:20;10.70;;;7.90;;
67227;SDS011;54139;42.616;23.748;2023-02-23T16:33:03;11.98;;;8.07;;
67227;SDS011;54139;42.616;23.748;2023-02-23T16:35:33;11.18;;;8.13;;
67227;SDS011;54139;42.616;23.748;2023-02-23T16:38:03;14.60;;;8.73;;
67227;SDS011;54139;42.616;23.748;2023-02-23T16:40:34;9.25;;;7.70;;
67227;SDS011;54139;42.616;23.748;2023-02-23T16:42:59;9.48;;;8.35;;
67227;SDS011;54139;42.616;23.748;2023-02-23T16:45:26;14.60;;;10.35;;
67227;SDS011;54139;42.616;23.748;2023-02-23T16:47:53;14.40;;;10.80;;
67227;SDS011;54139;42.616;23.748;2023-02-23T16:50:21;16.75;;;11.63;;
67227;SDS011;54139;42.616;23.748;2023-02-23T16:52:49;16.20;;;11.82;;
67227;SDS011;54139;42.616;23.748;2023-02-23T16:55:22;14.32;;;12.20;;
67227;SDS011;54139;42.616;23.748;2023-02-23T16:57:53;20.58;;;12.48;;
67227;SDS011;54139;42.616;23.748;2023-02-23T17:00:24;21.33;;;13.55;;
67227;SDS011;54139;42.616;23.748;2023-02-23T17:02:52;18.35;;;13.02;;
67227;SDS011;54139;42.616;23.748;2023-02-23T17:05:19;20.83;;;14.35;;
67227;SDS011;54139;42.616;23.748;2023-02-23T17:07:47;23.83;;;15.30;;
67227;SDS011;54139;42.616;23.748;2023-02-23T17:10:19;22.75;;;14.23;;
67227;SDS011;54139;42.616;23.748;2023-02-23T17:12:57;26.38;;;15.75;;
67227;SDS011;54139;42.616;23.748;2023-02-23T17:15:32;19.90;;;14.15;;
67227;SDS011;54139;42.616;23.748;2023-02-23T17:18:00;22.48;;;15.40;;
67227;SDS011;54139;42.616;23.748;2023-02-23T17:20:26;24.08;;;15.15;;
67227;SDS011;54139;42.616;23.748;2023-02-23T17:22:54;26.92;;;16.60;;
67227;SDS011;54139;42.616;23.748;2023-02-23T17:25:22;21.02;;;15.02;;
67227;SDS011;54139;42.616;23.748;2023-02-23T17:27:53;26.15;;;15.80;;
67227;SDS011;54139;42.616;23.748;2023-02-23T17:30:20;19.23;;;15.02;;
67227;SDS011;54139;42.616;23.748;2023-02-23T17:32:46;23.42;;;14.80;;
67227;SDS011;54139;42.616;23.748;2023-02-23T17:35:12;23.67;;;15.73;;
67227;SDS011;54139;42.616;23.748;2023-02-23T17:37:37;21.25;;;15.05;;